sensor_id;sensor_type;location;lat;lon;timestamp;P1;durP1;ratioP1;P2;durP2;ratioP2
40022;SDS011;25713;-35.352;149.036;2022-07-29T00:01:27;2.78;;;1.20;;
40022;SDS011;25713;-35.352;149.036;2022-07-29T00:03:56;2.67;;;1.38;;
40022;SDS011;25713;-35.352;149.036;2022-07-29T00:06:26;1.60;;;1.08;;
40022;SDS011;25713;-35.352;149.036;2022-07-29T00:08:55;2.95;;;1.20;;
40022;SDS011;25713;-35.352;149.036;2022-07-29T00:11:27;2.45;;;1.10;;
40022;SDS011;25713;-35.352;149.036;2022-07-29T00:13:56;2.25;;;1.00;;
40022;SDS011;25713;-35.352;149.036;2022-07-29T00:16:26;1.95;;;1.10;;
40022;SDS011;25713;-35.352;149.036;2022-07-29T00:18:56;2.80;;;0.90;;
40022;SDS011;25713;-35.352;149.036;2022-07-29T00:21:25;1.52;;;0.90;;
40022;SDS011;25713;-35.352;149.036;2022-07-29T00:23:55;1.83;;;1.00;;
40022;SDS011;25713;-35.352;149.036;2022-07-29T00:26:26;2.40;;;1.20;;
40022;SDS011;25713;-35.352;149.036;2022-07-29T00:28:56;2.15;;;1.38;;
40022;SDS011;25713;-35.352;149.036;2022-07-29T00:31:26;2.00;;;1.30;;
40022;SDS011;25713;-35.352;149.036;2022-07-29T00:33:56;3.08;;;1.60;;
40022;SDS011;25713;-35.352;149.036;2022-07-29T00:36:26;2.08;;;1.17;;
40022;SDS011;25713;-35.352;149.036;2022-07-29T00:38:55;1.40;;;1.17;;
40022;SDS011;25713;-35.352;149.036;2022-07-29T00:41:27;2.10;;;1.38;;
40022;SDS011;25713;-35.352;149.036;2022-07-29T00:43:56;3.60;;;1.35;;
40022;SDS011;25713;-35.352;149.036;2022-07-29T00:46:26;2.38;;;1.50;;
40022;SDS011;25713;-35.352;149.036;2022-07-29T00:48:55;2.60;;;1.40;;
40022;SDS011;25713;-35.352;149.036;2022-07-29T00:51:25;2.38;;;1.42;;
40022;SDS011;25713;-35.352;149.036;2022-07-29T00:53:55;2.75;;;1.30;;
40022;SDS011;25713;-35.352;149.036;2022-07-29T00:56:27;2.70;;;1.45;;
40022;SDS011;25713;-35.352;149.036;2022-07-29T00:58:59;2.85;;;1.25;;
40022;SDS011;25713;-35.352;149.036;2022-07-29T01:01:29;1.98;;;1.20;;
40022;SDS011;25713;-35.352;149.036;2022-07-29T01:03:59;1.20;;;1.10;;
40022;SDS011;25713;-35.352;149.036;2022-07-29T01:06:29;1.80;;;1.25;;
40022;SDS011;25713;-35.352;149.036;2022-07-29T01:08:59;2.42;;;1.33;;
40022;SDS011;25713;-35.352;149.036;2022-07-29T01:11:31;1.35;;;1.17;;
40022;SDS011;25713;-35.352;149.036;2022-07-29T01:14:06;1.75;;;1.48;;
40022;SDS011;25713;-35.352;149.036;2022-07-29T01:16:38;1.95;;;1.00;;
40022;SDS011;25713;-35.352;149.036;2022-07-29T01:19:26;2.47;;;1.35;;
40022;SDS011;25713;-35.352;149.036;2022-07-29T01:22:17;3.15;;;2.03;;
40022;SDS011;25713;-35.352;149.036;2022-07-29T01:28:00;2.47;;;0.85;;
40022;SDS011;25713;-35.352;149.036;2022-07-29T01:30:44;2.22;;;1.00;;
40022;SDS011;25713;-35.352;149.036;2022-07-29T01:33:18;2.30;;;1.58;;
40022;SDS011;25713;-35.352;149.036;2022-07-29T01:35:52;2.08;;;1.02;;
40022;SDS011;25713;-35.352;149.036;2022-07-29T01:38:22;2.25;;;1.50;;
40022;SDS011;25713;-35.352;149.036;2022-07-29T01:40:58;2.35;;;0.95;;
40022;SDS011;25713;-35.352;149.036;2022-07-29T01:43:34;1.83;;;1.20;;
40022;SDS011;25713;-35.352;149.036;2022-07-29T01:46:11;2.35;;;1.02;;
40022;SDS011;25713;-35.352;149.036;2022-07-29T01:48:45;1.85;;;1.20;;
40022;SDS011;25713;-35.352;149.036;2022-07-29T01:51:18;2.40;;;1.20;;
40022;SDS011;25713;-35.352;149.036;2022-07-29T01:53:50;1.50;;;1.10;;
40022;SDS011;25713;-35.352;149.036;2022-07-29T01:56:22;1.60;;;0.95;;
40022;SDS011;25713;-35.352;149.036;2022-07-29T01:58:53;1.73;;;0.93;;
40022;SDS011;25713;-35.352;149.036;2022-07-29T02:01:26;1.40;;;0.82;;
40022;SDS011;25713;-35.352;149.036;2022-07-29T02:03:57;1.13;;;0.70;;
40022;SDS011;25713;-35.352;149.036;2022-07-29T02:06:30;1.20;;;0.85;;
40022;SDS011;25713;-35.352;149.036;2022-07-29T02:09:02;0.70;;;0.57;;
40022;SDS011;25713;-35.352;149.036;2022-07-29T02:11:33;2.08;;;0.80;;
40022;SDS011;25713;-35.352;149.036;2022-07-29T02:14:04;1.30;;;0.75;;
40022;SDS011;25713;-35.352;149.036;2022-07-29T02:16:36;1.50;;;0.73;;
40022;SDS011;25713;-35.352;149.036;2022-07-29T02:19:08;1.17;;;0.68;;
40022;SDS011;25713;-35.352;149.036;2022-07-29T02:21:39;1.83;;;0.70;;
40022;SDS011;25713;-35.352;149.036;2022-07-29T02:24:10;1.23;;;0.70;;
40022;SDS011;25713;-35.352;149.036;2022-07-29T02:26:41;1.50;;;0.70;;
40022;SDS011;25713;-35.352;149.036;2022-07-29T02:29:12;1.13;;;0.80;;
40022;SDS011;25713;-35.352;149.036;2022-07-29T02:31:46;1.58;;;0.60;;
40022;SDS011;25713;-35.352;149.036;2022-07-29T02:34:18;0.90;;;0.60;;
40022;SDS011;25713;-35.352;149.036;2022-07-29T02:36:49;1.63;;;0.75;;
40022;SDS011;25713;-35.352;149.036;2022-07-29T02:39:19;2.83;;;0.88;;
40022;SDS011;25713;-35.352;149.036;2022-07-29T02:41:52;0.87;;;0.80;;
40022;SDS011;25713;-35.352;149.036;2022-07-29T02:44:26;2.65;;;0.75;;
40022;SDS011;25713;-35.352;149.036;2022-07-29T02:46:58;1.35;;;0.80;;
40022;SDS011;25713;-35.352;149.036;2022-07-29T02:49:37;1.20;;;0.68;;
40022;SDS011;25713;-35.352;149.036;2022-07-29T02:52:11;0.90;;;0.60;;
40022;SDS011;25713;-35.352;149.036;2022-07-29T02:54:46;2.13;;;0.80;;
40022;SDS011;25713;-35.352;149.036;2022-07-29T02:57:21;2.00;;;0.70;;
40022;SDS011;25713;-35.352;149.036;2022-07-29T02:59:58;3.92;;;0.70;;
40022;SDS011;25713;-35.352;149.036;2022-07-29T03:02:34;1.48;;;0.75;;
40022;SDS011;25713;-35.352;149.036;2022-07-29T03:05:09;3.45;;;0.98;;
40022;SDS011;25713;-35.352;149.036;2022-07-29T03:07:43;2.40;;;0.88;;
40022;SDS011;25713;-35.352;149.036;2022-07-29T03:10:19;0.70;;;0.65;;
40022;SDS011;25713;-35.352;149.036;2022-07-29T03:12:50;1.10;;;0.80;;
40022;SDS011;25713;-35.352;149.036;2022-07-29T03:15:21;0.90;;;0.60;;
40022;SDS011;25713;-35.352;149.036;2022-07-29T03:17:54;1.20;;;0.70;;
40022;SDS011;25713;-35.352;149.036;2022-07-29T03:20:24;1.27;;;0.80;;
40022;SDS011;25713;-35.352;149.036;2022-07-29T03:22:54;1.13;;;0.63;;
40022;SDS011;25713;-35.352;149.036;2022-07-29T03:25:24;1.55;;;0.70;;
40022;SDS011;25713;-35.352;149.036;2022-07-29T03:27:54;7.03;;;0.90;;
40022;SDS011;25713;-35.352;149.036;2022-07-29T03:30:24;3.05;;;0.70;;
40022;SDS011;25713;-35.352;149.036;2022-07-29T03:32:55;1.20;;;0.60;;
40022;SDS011;25713;-35.352;149.036;2022-07-29T03:35:25;2.60;;;0.68;;
40022;SDS011;25713;-35.352;149.036;2022-07-29T03:37:55;0.82;;;0.57;;
40022;SDS011;25713;-35.352;149.036;2022-07-29T03:40:26;1.85;;;0.80;;
40022;SDS011;25713;-35.352;149.036;2022-07-29T03:42:59;0.57;;;0.57;;
40022;SDS011;25713;-35.352;149.036;2022-07-29T03:45:30;1.10;;;0.60;;
40022;SDS011;25713;-35.352;149.036;2022-07-29T03:48:05;2.17;;;0.85;;
40022;SDS011;25713;-35.352;149.036;2022-07-29T03:50:37;1.13;;;0.68;;
40022;SDS011;25713;-35.352;149.036;2022-07-29T03:53:07;0.55;;;0.55;;
40022;SDS011;25713;-35.352;149.036;2022-07-29T03:55:40;0.73;;;0.50;;
40022;SDS011;25713;-35.352;149.036;2022-07-29T03:58:11;1.00;;;0.50;;
40022;SDS011;25713;-35.352;149.036;2022-07-29T04:00:42;1.77;;;0.80;;
40022;SDS011;25713;-35.352;149.036;2022-07-29T04:03:15;1.42;;;0.80;;
40022;SDS011;25713;-35.352;149.036;2022-07-29T04:05:45;2.25;;;0.50;;
40022;SDS011;25713;-35.352;149.036;2022-07-29T04:08:28;1.15;;;0.57;;
40022;SDS011;25713;-35.352;149.036;2022-07-29T04:10:58;1.05;;;0.63;;
40022;SDS011;25713;-35.352;149.036;2022-07-29T04:13:29;0.60;;;0.47;;
40022;SDS011;25713;-35.352;149.036;2022-07-29T04:15:59;1.30;;;0.60;;
40022;SDS011;25713;-35.352;149.036;2022-07-29T04:18:31;2.95;;;0.52;;
40022;SDS011;25713;-35.352;149.036;2022-07-29T04:21:01;1.25;;;0.50;;
40022;SDS011;25713;-35.352;149.036;2022-07-29T04:23:31;0.95;;;0.40;;
40022;SDS011;25713;-35.352;149.036;2022-07-29T04:26:01;0.90;;;0.40;;
40022;SDS011;25713;-35.352;149.036;2022-07-29T04:28:31;0.85;;;0.50;;
40022;SDS011;25713;-35.352;149.036;2022-07-29T04:31:01;0.45;;;0.32;;
40022;SDS011;25713;-35.352;149.036;2022-07-29T04:33:33;0.50;;;0.30;;
40022;SDS011;25713;-35.352;149.036;2022-07-29T04:36:02;0.73;;;0.45;;
40022;SDS011;25713;-35.352;149.036;2022-07-29T04:38:33;0.82;;;0.40;;
40022;SDS011;25713;-35.352;149.036;2022-07-29T04:41:03;0.50;;;0.30;;
40022;SDS011;25713;-35.352;149.036;2022-07-29T04:43:33;1.42;;;0.40;;
40022;SDS011;25713;-35.352;149.036;2022-07-29T04:46:05;0.65;;;0.40;;
40022;SDS011;25713;-35.352;149.036;2022-07-29T04:48:37;0.32;;;0.22;;
40022;SDS011;25713;-35.352;149.036;2022-07-29T04:51:07;0.20;;;0.20;;
40022;SDS011;25713;-35.352;149.036;2022-07-29T04:53:37;0.88;;;0.45;;
40022;SDS011;25713;-35.352;149.036;2022-07-29T04:56:07;0.80;;;0.40;;
40022;SDS011;25713;-35.352;149.036;2022-07-29T04:58:37;0.35;;;0.30;;
40022;SDS011;25713;-35.352;149.036;2022-07-29T05:01:06;0.30;;;0.20;;
40022;SDS011;25713;-35.352;149.036;2022-07-29T05:03:38;0.70;;;0.30;;
40022;SDS011;25713;-35.352;149.036;2022-07-29T05:06:09;1.40;;;0.40;;
40022;SDS011;25713;-35.352;149.036;2022-07-29T05:08:39;0.40;;;0.30;;
40022;SDS011;25713;-35.352;149.036;2022-07-29T05:11:08;0.50;;;0.40;;
40022;SDS011;25713;-35.352;149.036;2022-07-29T05:13:38;1.80;;;0.30;;
40022;SDS011;25713;-35.352;149.036;2022-07-29T05:16:08;0.38;;;0.30;;
40022;SDS011;25713;-35.352;149.036;2022-07-29T05:18:40;0.65;;;0.40;;
40022;SDS011;25713;-35.352;149.036;2022-07-29T05:21:10;0.40;;;0.30;;
40022;SDS011;25713;-35.352;149.036;2022-07-29T05:23:39;0.30;;;0.30;;
40022;SDS011;25713;-35.352;149.036;2022-07-29T05:26:09;0.30;;;0.30;;
40022;SDS011;25713;-35.352;149.036;2022-07-29T05:28:39;0.38;;;0.30;;
40022;SDS011;25713;-35.352;149.036;2022-07-29T05:31:09;1.63;;;0.47;;
40022;SDS011;25713;-35.352;149.036;2022-07-29T05:33:40;0.30;;;0.20;;
40022;SDS011;25713;-35.352;149.036;2022-07-29T05:36:10;0.50;;;0.40;;
40022;SDS011;25713;-35.352;149.036;2022-07-29T05:38:40;1.27;;;0.52;;
40022;SDS011;25713;-35.352;149.036;2022-07-29T05:41:10;0.45;;;0.38;;
40022;SDS011;25713;-35.352;149.036;2022-07-29T05:43:40;0.40;;;0.35;;
40022;SDS011;25713;-35.352;149.036;2022-07-29T05:46:10;0.30;;;0.30;;
40022;SDS011;25713;-35.352;149.036;2022-07-29T05:48:43;0.50;;;0.30;;
40022;SDS011;25713;-35.352;149.036;2022-07-29T05:51:13;0.88;;;0.40;;
40022;SDS011;25713;-35.352;149.036;2022-07-29T05:53:43;0.30;;;0.30;;
40022;SDS011;25713;-35.352;149.036;2022-07-29T05:56:13;0.50;;;0.30;;
40022;SDS011;25713;-35.352;149.036;2022-07-29T05:58:42;0.50;;;0.30;;
40022;SDS011;25713;-35.352;149.036;2022-07-29T06:01:13;0.40;;;0.30;;
40022;SDS011;25713;-35.352;149.036;2022-07-29T06:03:45;0.55;;;0.30;;
40022;SDS011;25713;-35.352;149.036;2022-07-29T06:06:15;0.77;;;0.40;;
40022;SDS011;25713;-35.352;149.036;2022-07-29T06:08:45;1.02;;;0.52;;
40022;SDS011;25713;-35.352;149.036;2022-07-29T06:11:15;0.30;;;0.30;;
40022;SDS011;25713;-35.352;149.036;2022-07-29T06:13:45;0.60;;;0.60;;
40022;SDS011;25713;-35.352;149.036;2022-07-29T06:16:15;0.40;;;0.40;;
40022;SDS011;25713;-35.352;149.036;2022-07-29T06:18:47;0.35;;;0.35;;
40022;SDS011;25713;-35.352;149.036;2022-07-29T06:21:17;1.30;;;0.40;;
40022;SDS011;25713;-35.352;149.036;2022-07-29T06:23:47;0.98;;;0.45;;
40022;SDS011;25713;-35.352;149.036;2022-07-29T06:26:17;0.55;;;0.45;;
40022;SDS011;25713;-35.352;149.036;2022-07-29T06:28:47;0.68;;;0.40;;
40022;SDS011;25713;-35.352;149.036;2022-07-29T06:31:17;0.65;;;0.40;;
40022;SDS011;25713;-35.352;149.036;2022-07-29T06:33:49;1.00;;;0.52;;
40022;SDS011;25713;-35.352;149.036;2022-07-29T06:36:20;0.40;;;0.40;;
40022;SDS011;25713;-35.352;149.036;2022-07-29T06:38:50;1.00;;;0.40;;
40022;SDS011;25713;-35.352;149.036;2022-07-29T06:41:19;0.50;;;0.50;;
40022;SDS011;25713;-35.352;149.036;2022-07-29T06:43:50;0.40;;;0.40;;
40022;SDS011;25713;-35.352;149.036;2022-07-29T06:46:21;0.98;;;0.60;;
40022;SDS011;25713;-35.352;149.036;2022-07-29T06:48:53;0.40;;;0.40;;
40022;SDS011;25713;-35.352;149.036;2022-07-29T06:51:23;1.33;;;0.55;;
40022;SDS011;25713;-35.352;149.036;2022-07-29T06:53:53;0.98;;;0.50;;
40022;SDS011;25713;-35.352;149.036;2022-07-29T06:56:24;1.10;;;0.50;;
40022;SDS011;25713;-35.352;149.036;2022-07-29T06:58:54;1.33;;;0.65;;
40022;SDS011;25713;-35.352;149.036;2022-07-29T07:01:24;1.50;;;0.60;;
40022;SDS011;25713;-35.352;149.036;2022-07-29T07:03:56;1.90;;;0.68;;
40022;SDS011;25713;-35.352;149.036;2022-07-29T07:06:27;1.23;;;0.68;;
40022;SDS011;25713;-35.352;149.036;2022-07-29T07:08:57;1.30;;;0.80;;
40022;SDS011;25713;-35.352;149.036;2022-07-29T07:11:28;3.50;;;1.00;;
40022;SDS011;25713;-35.352;149.036;2022-07-29T07:13:58;1.70;;;0.93;;
40022;SDS011;25713;-35.352;149.036;2022-07-29T07:16:28;1.50;;;0.80;;
40022;SDS011;25713;-35.352;149.036;2022-07-29T07:19:00;1.45;;;1.10;;
40022;SDS011;25713;-35.352;149.036;2022-07-29T07:21:30;1.17;;;0.90;;
40022;SDS011;25713;-35.352;149.036;2022-07-29T07:24:00;2.17;;;0.80;;
40022;SDS011;25713;-35.352;149.036;2022-07-29T07:26:30;1.85;;;0.85;;
40022;SDS011;25713;-35.352;149.036;2022-07-29T07:29:00;1.30;;;0.70;;
40022;SDS011;25713;-35.352;149.036;2022-07-29T07:31:30;1.48;;;0.85;;
40022;SDS011;25713;-35.352;149.036;2022-07-29T07:34:02;1.17;;;0.77;;
40022;SDS011;25713;-35.352;149.036;2022-07-29T07:36:32;1.48;;;0.60;;
40022;SDS011;25713;-35.352;149.036;2022-07-29T07:39:02;0.70;;;0.60;;
40022;SDS011;25713;-35.352;149.036;2022-07-29T07:41:32;1.63;;;0.70;;
40022;SDS011;25713;-35.352;149.036;2022-07-29T07:44:02;1.15;;;0.70;;
40022;SDS011;25713;-35.352;149.036;2022-07-29T07:46:32;2.97;;;0.90;;
40022;SDS011;25713;-35.352;149.036;2022-07-29T07:49:04;3.58;;;1.33;;
40022;SDS011;25713;-35.352;149.036;2022-07-29T07:51:35;0.95;;;0.77;;
40022;SDS011;25713;-35.352;149.036;2022-07-29T07:54:06;1.45;;;0.80;;
40022;SDS011;25713;-35.352;149.036;2022-07-29T07:56:36;2.30;;;0.90;;
40022;SDS011;25713;-35.352;149.036;2022-07-29T07:59:06;1.10;;;0.90;;
40022;SDS011;25713;-35.352;149.036;2022-07-29T08:01:37;1.70;;;1.02;;
40022;SDS011;25713;-35.352;149.036;2022-07-29T08:04:09;1.85;;;0.88;;
40022;SDS011;25713;-35.352;149.036;2022-07-29T08:09:08;1.05;;;0.90;;
40022;SDS011;25713;-35.352;149.036;2022-07-29T08:11:38;2.50;;;0.80;;
40022;SDS011;25713;-35.352;149.036;2022-07-29T08:14:08;1.55;;;0.90;;
40022;SDS011;25713;-35.352;149.036;2022-07-29T08:16:38;1.13;;;0.80;;
40022;SDS011;25713;-35.352;149.036;2022-07-29T08:19:10;3.47;;;1.08;;
40022;SDS011;25713;-35.352;149.036;2022-07-29T08:21:40;2.23;;;0.80;;
40022;SDS011;25713;-35.352;149.036;2022-07-29T08:24:10;1.95;;;1.17;;
40022;SDS011;25713;-35.352;149.036;2022-07-29T08:26:40;2.88;;;1.20;;
40022;SDS011;25713;-35.352;149.036;2022-07-29T08:29:11;2.22;;;0.90;;
40022;SDS011;25713;-35.352;149.036;2022-07-29T08:31:41;2.45;;;1.10;;
40022;SDS011;25713;-35.352;149.036;2022-07-29T08:34:14;1.55;;;0.93;;
40022;SDS011;25713;-35.352;149.036;2022-07-29T08:36:43;2.53;;;1.10;;
40022;SDS011;25713;-35.352;149.036;2022-07-29T08:39:13;3.50;;;1.17;;
40022;SDS011;25713;-35.352;149.036;2022-07-29T08:41:43;3.80;;;1.27;;
40022;SDS011;25713;-35.352;149.036;2022-07-29T08:44:14;2.58;;;1.40;;
40022;SDS011;25713;-35.352;149.036;2022-07-29T08:46:45;2.63;;;1.35;;
40022;SDS011;25713;-35.352;149.036;2022-07-29T08:49:18;3.15;;;1.45;;
40022;SDS011;25713;-35.352;149.036;2022-07-29T08:51:47;2.97;;;1.40;;
40022;SDS011;25713;-35.352;149.036;2022-07-29T08:54:18;3.42;;;1.38;;
40022;SDS011;25713;-35.352;149.036;2022-07-29T08:59:19;2.28;;;0.90;;
40022;SDS011;25713;-35.352;149.036;2022-07-29T09:01:50;1.55;;;1.00;;
40022;SDS011;25713;-35.352;149.036;2022-07-29T09:04:24;4.35;;;1.30;;
40022;SDS011;25713;-35.352;149.036;2022-07-29T09:06:57;2.97;;;1.08;;
40022;SDS011;25713;-35.352;149.036;2022-07-29T09:09:33;2.40;;;0.93;;
40022;SDS011;25713;-35.352;149.036;2022-07-29T09:12:03;1.98;;;1.00;;
40022;SDS011;25713;-35.352;149.036;2022-07-29T09:14:33;1.92;;;0.98;;
40022;SDS011;25713;-35.352;149.036;2022-07-29T09:17:02;1.70;;;1.00;;
40022;SDS011;25713;-35.352;149.036;2022-07-29T09:19:34;1.92;;;1.00;;
40022;SDS011;25713;-35.352;149.036;2022-07-29T09:22:05;2.28;;;1.10;;
40022;SDS011;25713;-35.352;149.036;2022-07-29T09:24:42;2.53;;;1.00;;
40022;SDS011;25713;-35.352;149.036;2022-07-29T09:27:19;2.67;;;1.15;;
40022;SDS011;25713;-35.352;149.036;2022-07-29T09:29:58;1.48;;;0.90;;
40022;SDS011;25713;-35.352;149.036;2022-07-29T09:32:28;2.20;;;1.40;;
40022;SDS011;25713;-35.352;149.036;2022-07-29T09:35:16;4.13;;;1.27;;
40022;SDS011;25713;-35.352;149.036;2022-07-29T09:37:48;2.65;;;1.10;;
40022;SDS011;25713;-35.352;149.036;2022-07-29T09:40:19;2.30;;;0.98;;
40022;SDS011;25713;-35.352;149.036;2022-07-29T09:42:49;2.40;;;1.10;;
40022;SDS011;25713;-35.352;149.036;2022-07-29T09:45:28;2.10;;;1.10;;
40022;SDS011;25713;-35.352;149.036;2022-07-29T09:47:59;3.65;;;1.10;;
40022;SDS011;25713;-35.352;149.036;2022-07-29T09:50:43;2.03;;;1.38;;
40022;SDS011;25713;-35.352;149.036;2022-07-29T09:53:20;2.92;;;1.20;;
40022;SDS011;25713;-35.352;149.036;2022-07-29T09:56:00;1.55;;;1.10;;
40022;SDS011;25713;-35.352;149.036;2022-07-29T09:58:31;2.72;;;1.30;;
40022;SDS011;25713;-35.352;149.036;2022-07-29T10:01:01;1.95;;;1.10;;
40022;SDS011;25713;-35.352;149.036;2022-07-29T10:03:31;1.38;;;1.00;;
40022;SDS011;25713;-35.352;149.036;2022-07-29T10:06:19;1.05;;;0.93;;
40022;SDS011;25713;-35.352;149.036;2022-07-29T10:08:49;2.88;;;1.10;;
40022;SDS011;25713;-35.352;149.036;2022-07-29T10:11:19;1.85;;;1.10;;
40022;SDS011;25713;-35.352;149.036;2022-07-29T10:13:49;2.53;;;1.05;;
40022;SDS011;25713;-35.352;149.036;2022-07-29T10:16:19;3.47;;;1.10;;
40022;SDS011;25713;-35.352;149.036;2022-07-29T10:18:49;2.65;;;0.80;;
40022;SDS011;25713;-35.352;149.036;2022-07-29T10:21:21;1.52;;;0.98;;
40022;SDS011;25713;-35.352;149.036;2022-07-29T10:23:51;2.15;;;0.73;;
40022;SDS011;25713;-35.352;149.036;2022-07-29T10:26:22;1.45;;;0.82;;
40022;SDS011;25713;-35.352;149.036;2022-07-29T10:28:51;1.90;;;0.90;;
40022;SDS011;25713;-35.352;149.036;2022-07-29T10:31:22;2.03;;;0.70;;
40022;SDS011;25713;-35.352;149.036;2022-07-29T10:34:00;1.77;;;0.70;;
40022;SDS011;25713;-35.352;149.036;2022-07-29T10:36:41;2.58;;;0.70;;
40022;SDS011;25713;-35.352;149.036;2022-07-29T10:39:24;1.17;;;0.70;;
40022;SDS011;25713;-35.352;149.036;2022-07-29T10:42:10;0.65;;;0.55;;
40022;SDS011;25713;-35.352;149.036;2022-07-29T10:44:44;1.38;;;0.80;;
40022;SDS011;25713;-35.352;149.036;2022-07-29T10:47:21;1.58;;;0.77;;
40022;SDS011;25713;-35.352;149.036;2022-07-29T10:49:55;3.10;;;0.60;;
40022;SDS011;25713;-35.352;149.036;2022-07-29T10:55:34;2.05;;;0.70;;
40022;SDS011;25713;-35.352;149.036;2022-07-29T10:58:11;1.10;;;0.65;;
40022;SDS011;25713;-35.352;149.036;2022-07-29T11:00:44;1.10;;;0.70;;
40022;SDS011;25713;-35.352;149.036;2022-07-29T11:06:15;2.47;;;0.70;;
40022;SDS011;25713;-35.352;149.036;2022-07-29T11:08:48;1.90;;;0.60;;
40022;SDS011;25713;-35.352;149.036;2022-07-29T11:11:43;1.73;;;0.80;;
40022;SDS011;25713;-35.352;149.036;2022-07-29T11:14:13;1.63;;;0.70;;
40022;SDS011;25713;-35.352;149.036;2022-07-29T11:17:01;0.60;;;0.60;;
40022;SDS011;25713;-35.352;149.036;2022-07-29T11:19:32;0.82;;;0.68;;
40022;SDS011;25713;-35.352;149.036;2022-07-29T11:22:02;1.13;;;0.70;;
40022;SDS011;25713;-35.352;149.036;2022-07-29T11:24:37;1.73;;;0.70;;
40022;SDS011;25713;-35.352;149.036;2022-07-29T11:27:07;3.72;;;1.30;;
40022;SDS011;25713;-35.352;149.036;2022-07-29T11:29:48;1.40;;;0.70;;
40022;SDS011;25713;-35.352;149.036;2022-07-29T11:32:19;2.42;;;0.70;;
40022;SDS011;25713;-35.352;149.036;2022-07-29T11:34:49;0.77;;;0.50;;
40022;SDS011;25713;-35.352;149.036;2022-07-29T11:37:33;1.20;;;0.57;;
40022;SDS011;25713;-35.352;149.036;2022-07-29T11:40:15;2.90;;;0.60;;
40022;SDS011;25713;-35.352;149.036;2022-07-29T11:42:48;1.03;;;0.60;;
40022;SDS011;25713;-35.352;149.036;2022-07-29T11:45:19;0.50;;;0.50;;
40022;SDS011;25713;-35.352;149.036;2022-07-29T11:47:53;0.90;;;0.68;;
40022;SDS011;25713;-35.352;149.036;2022-07-29T11:50:31;2.53;;;0.88;;
40022;SDS011;25713;-35.352;149.036;2022-07-29T11:53:03;0.98;;;0.60;;
40022;SDS011;25713;-35.352;149.036;2022-07-29T11:55:40;1.77;;;0.95;;
40022;SDS011;25713;-35.352;149.036;2022-07-29T11:58:11;4.35;;;0.68;;
40022;SDS011;25713;-35.352;149.036;2022-07-29T12:00:41;2.05;;;0.73;;
40022;SDS011;25713;-35.352;149.036;2022-07-29T12:03:22;1.60;;;0.60;;
40022;SDS011;25713;-35.352;149.036;2022-07-29T12:05:53;2.38;;;0.80;;
40022;SDS011;25713;-35.352;149.036;2022-07-29T12:08:22;2.70;;;0.85;;
40022;SDS011;25713;-35.352;149.036;2022-07-29T12:10:54;1.17;;;0.60;;
40022;SDS011;25713;-35.352;149.036;2022-07-29T12:13:24;2.30;;;0.60;;
40022;SDS011;25713;-35.352;149.036;2022-07-29T12:16:06;1.60;;;0.50;;
40022;SDS011;25713;-35.352;149.036;2022-07-29T12:18:35;2.30;;;1.20;;
40022;SDS011;25713;-35.352;149.036;2022-07-29T12:21:05;0.90;;;0.50;;
40022;SDS011;25713;-35.352;149.036;2022-07-29T12:23:34;1.02;;;0.60;;
40022;SDS011;25713;-35.352;149.036;2022-07-29T12:26:06;0.95;;;0.65;;
40022;SDS011;25713;-35.352;149.036;2022-07-29T12:28:36;1.38;;;0.50;;
40022;SDS011;25713;-35.352;149.036;2022-07-29T12:31:08;2.65;;;0.60;;
40022;SDS011;25713;-35.352;149.036;2022-07-29T12:33:42;1.90;;;0.60;;
40022;SDS011;25713;-35.352;149.036;2022-07-29T12:36:19;0.98;;;0.57;;
40022;SDS011;25713;-35.352;149.036;2022-07-29T12:38:49;2.03;;;0.95;;
40022;SDS011;25713;-35.352;149.036;2022-07-29T12:41:20;1.40;;;0.68;;
40022;SDS011;25713;-35.352;149.036;2022-07-29T12:43:53;2.63;;;0.60;;
40022;SDS011;25713;-35.352;149.036;2022-07-29T12:46:23;0.82;;;0.60;;
40022;SDS011;25713;-35.352;149.036;2022-07-29T12:48:52;1.15;;;0.60;;
40022;SDS011;25713;-35.352;149.036;2022-07-29T12:51:28;1.85;;;0.70;;
40022;SDS011;25713;-35.352;149.036;2022-07-29T12:54:05;1.58;;;0.70;;
40022;SDS011;25713;-35.352;149.036;2022-07-29T12:56:38;1.67;;;1.08;;
40022;SDS011;25713;-35.352;149.036;2022-07-29T12:59:13;1.77;;;0.50;;
40022;SDS011;25713;-35.352;149.036;2022-07-29T13:01:43;1.60;;;0.70;;
40022;SDS011;25713;-35.352;149.036;2022-07-29T13:04:23;0.93;;;0.60;;
40022;SDS011;25713;-35.352;149.036;2022-07-29T13:06:58;0.82;;;0.50;;
40022;SDS011;25713;-35.352;149.036;2022-07-29T13:09:36;1.58;;;0.70;;
40022;SDS011;25713;-35.352;149.036;2022-07-29T13:12:09;2.00;;;0.63;;
40022;SDS011;25713;-35.352;149.036;2022-07-29T13:17:08;0.75;;;0.57;;
40022;SDS011;25713;-35.352;149.036;2022-07-29T13:19:39;2.72;;;0.70;;
40022;SDS011;25713;-35.352;149.036;2022-07-29T13:22:09;2.00;;;0.73;;
40022;SDS011;25713;-35.352;149.036;2022-07-29T13:24:46;1.50;;;0.60;;
40022;SDS011;25713;-35.352;149.036;2022-07-29T13:27:18;0.70;;;0.45;;
40022;SDS011;25713;-35.352;149.036;2022-07-29T13:29:49;1.05;;;0.40;;
40022;SDS011;25713;-35.352;149.036;2022-07-29T13:32:19;1.25;;;0.68;;
40022;SDS011;25713;-35.352;149.036;2022-07-29T13:34:49;2.10;;;0.60;;
40022;SDS011;25713;-35.352;149.036;2022-07-29T13:37:21;1.25;;;0.50;;
40022;SDS011;25713;-35.352;149.036;2022-07-29T13:39:50;0.65;;;0.47;;
40022;SDS011;25713;-35.352;149.036;2022-07-29T13:42:22;0.60;;;0.60;;
40022;SDS011;25713;-35.352;149.036;2022-07-29T13:44:51;0.70;;;0.40;;
40022;SDS011;25713;-35.352;149.036;2022-07-29T13:47:21;5.35;;;0.63;;
40022;SDS011;25713;-35.352;149.036;2022-07-29T13:49:51;1.17;;;0.60;;
40022;SDS011;25713;-35.352;149.036;2022-07-29T13:52:20;0.50;;;0.40;;
40022;SDS011;25713;-35.352;149.036;2022-07-29T13:54:50;0.70;;;0.47;;
40022;SDS011;25713;-35.352;149.036;2022-07-29T13:57:21;1.65;;;0.60;;
40022;SDS011;25713;-35.352;149.036;2022-07-29T13:59:52;2.72;;;0.50;;
40022;SDS011;25713;-35.352;149.036;2022-07-29T14:02:22;1.15;;;0.50;;
40022;SDS011;25713;-35.352;149.036;2022-07-29T14:04:52;3.65;;;1.25;;
40022;SDS011;25713;-35.352;149.036;2022-07-29T14:07:21;1.17;;;0.55;;
40022;SDS011;25713;-35.352;149.036;2022-07-29T14:09:51;1.33;;;0.45;;
40022;SDS011;25713;-35.352;149.036;2022-07-29T14:12:23;3.30;;;0.43;;
40022;SDS011;25713;-35.352;149.036;2022-07-29T14:14:53;2.35;;;0.45;;
40022;SDS011;25713;-35.352;149.036;2022-07-29T14:17:24;1.63;;;0.70;;
40022;SDS011;25713;-35.352;149.036;2022-07-29T14:19:54;0.82;;;0.50;;
40022;SDS011;25713;-35.352;149.036;2022-07-29T14:22:24;1.63;;;0.90;;
40022;SDS011;25713;-35.352;149.036;2022-07-29T14:24:54;1.80;;;0.60;;
40022;SDS011;25713;-35.352;149.036;2022-07-29T14:27:26;0.70;;;0.70;;
40022;SDS011;25713;-35.352;149.036;2022-07-29T14:29:55;0.63;;;0.57;;
40022;SDS011;25713;-35.352;149.036;2022-07-29T14:32:26;1.30;;;0.50;;
40022;SDS011;25713;-35.352;149.036;2022-07-29T14:34:56;0.77;;;0.77;;
40022;SDS011;25713;-35.352;149.036;2022-07-29T14:37:25;1.67;;;0.70;;
40022;SDS011;25713;-35.352;149.036;2022-07-29T14:39:55;1.58;;;0.75;;
40022;SDS011;25713;-35.352;149.036;2022-07-29T14:42:27;1.40;;;0.75;;
40022;SDS011;25713;-35.352;149.036;2022-07-29T14:44:57;1.67;;;0.60;;
40022;SDS011;25713;-35.352;149.036;2022-07-29T14:47:26;1.00;;;0.60;;
40022;SDS011;25713;-35.352;149.036;2022-07-29T14:49:56;1.77;;;0.60;;
40022;SDS011;25713;-35.352;149.036;2022-07-29T14:52:26;1.10;;;0.70;;